sensor_id;sensor_type;location;lat;lon;timestamp;P1;durP1;ratioP1;P2;durP2;ratioP2
59263;SDS011;45030;42.720;23.344;2022-09-09T00:00:15;6.88;;;4.57;;
59263;SDS011;45030;42.720;23.344;2022-09-09T00:02:44;9.93;;;4.30;;
59263;SDS011;45030;42.720;23.344;2022-09-09T00:05:17;6.40;;;3.92;;
59263;SDS011;45030;42.720;23.344;2022-09-09T00:07:47;5.80;;;4.90;;
59263;SDS011;45030;42.720;23.344;2022-09-09T00:10:28;5.55;;;4.65;;
59263;SDS011;45030;42.720;23.344;2022-09-09T00:15:22;6.55;;;4.60;;
59263;SDS011;45030;42.720;23.344;2022-09-09T00:17:56;6.63;;;4.82;;
59263;SDS011;45030;42.720;23.344;2022-09-09T00:20:35;5.38;;;4.15;;
59263;SDS011;45030;42.720;23.344;2022-09-09T00:23:12;6.30;;;4.57;;
59263;SDS011;45030;42.720;23.344;2022-09-09T00:28:20;6.70;;;4.70;;
59263;SDS011;45030;42.720;23.344;2022-09-09T00:30:46;5.35;;;4.40;;
59263;SDS011;45030;42.720;23.344;2022-09-09T00:33:15;5.30;;;4.13;;
59263;SDS011;45030;42.720;23.344;2022-09-09T00:35:50;6.13;;;4.88;;
59263;SDS011;45030;42.720;23.344;2022-09-09T00:38:19;5.45;;;4.72;;
59263;SDS011;45030;42.720;23.344;2022-09-09T00:51:04;6.45;;;4.75;;
59263;SDS011;45030;42.720;23.344;2022-09-09T00:53:39;6.00;;;4.53;;
59263;SDS011;45030;42.720;23.344;2022-09-09T00:56:14;6.82;;;5.07;;
59263;SDS011;45030;42.720;23.344;2022-09-09T00:58:55;6.53;;;4.68;;
59263;SDS011;45030;42.720;23.344;2022-09-09T01:01:25;7.28;;;4.88;;
59263;SDS011;45030;42.720;23.344;2022-09-09T01:03:52;8.63;;;5.50;;
59263;SDS011;45030;42.720;23.344;2022-09-09T01:06:30;7.72;;;5.97;;
59263;SDS011;45030;42.720;23.344;2022-09-09T01:11:22;5.93;;;4.90;;
59263;SDS011;45030;42.720;23.344;2022-09-09T01:13:52;7.30;;;5.25;;
59263;SDS011;45030;42.720;23.344;2022-09-09T01:16:18;10.65;;;6.05;;
59263;SDS011;45030;42.720;23.344;2022-09-09T01:18:44;7.63;;;5.53;;
59263;SDS011;45030;42.720;23.344;2022-09-09T01:28:36;8.88;;;5.28;;
59263;SDS011;45030;42.720;23.344;2022-09-09T01:31:05;7.40;;;5.22;;
59263;SDS011;45030;42.720;23.344;2022-09-09T01:33:32;6.22;;;4.95;;
59263;SDS011;45030;42.720;23.344;2022-09-09T01:35:59;5.88;;;5.05;;
59263;SDS011;45030;42.720;23.344;2022-09-09T01:38:25;6.68;;;5.65;;
59263;SDS011;45030;42.720;23.344;2022-09-09T01:40:52;7.38;;;5.68;;
59263;SDS011;45030;42.720;23.344;2022-09-09T01:43:18;8.48;;;5.65;;
59263;SDS011;45030;42.720;23.344;2022-09-09T01:45:44;9.18;;;5.90;;
59263;SDS011;45030;42.720;23.344;2022-09-09T01:48:11;7.13;;;6.22;;
59263;SDS011;45030;42.720;23.344;2022-09-09T01:50:36;7.45;;;5.88;;
59263;SDS011;45030;42.720;23.344;2022-09-09T01:53:02;7.25;;;5.90;;
59263;SDS011;45030;42.720;23.344;2022-09-09T01:55:31;8.82;;;6.50;;
59263;SDS011;45030;42.720;23.344;2022-09-09T01:58:10;7.72;;;6.07;;
59263;SDS011;45030;42.720;23.344;2022-09-09T02:00:40;10.32;;;6.00;;
59263;SDS011;45030;42.720;23.344;2022-09-09T02:03:18;10.55;;;6.15;;
59263;SDS011;45030;42.720;23.344;2022-09-09T02:08:33;10.98;;;7.07;;
59263;SDS011;45030;42.720;23.344;2022-09-09T02:11:23;8.48;;;5.40;;
59263;SDS011;45030;42.720;23.344;2022-09-09T02:13:48;7.85;;;6.50;;
59263;SDS011;45030;42.720;23.344;2022-09-09T02:21:22;9.73;;;6.47;;
59263;SDS011;45030;42.720;23.344;2022-09-09T02:23:48;8.05;;;6.28;;
59263;SDS011;45030;42.720;23.344;2022-09-09T02:26:17;7.47;;;5.97;;
59263;SDS011;45030;42.720;23.344;2022-09-09T02:28:46;8.18;;;6.40;;
59263;SDS011;45030;42.720;23.344;2022-09-09T02:31:14;9.82;;;7.22;;
59263;SDS011;45030;42.720;23.344;2022-09-09T02:33:41;9.95;;;6.30;;
59263;SDS011;45030;42.720;23.344;2022-09-09T02:36:08;6.68;;;5.97;;
59263;SDS011;45030;42.720;23.344;2022-09-09T02:38:35;8.38;;;5.65;;
59263;SDS011;45030;42.720;23.344;2022-09-09T02:41:02;8.70;;;6.18;;
59263;SDS011;45030;42.720;23.344;2022-09-09T02:43:32;8.52;;;6.05;;
59263;SDS011;45030;42.720;23.344;2022-09-09T02:48:47;9.32;;;5.72;;
59263;SDS011;45030;42.720;23.344;2022-09-09T02:51:22;9.20;;;6.18;;
59263;SDS011;45030;42.720;23.344;2022-09-09T02:53:56;8.55;;;6.70;;
59263;SDS011;45030;42.720;23.344;2022-09-09T02:56:25;6.35;;;5.68;;
59263;SDS011;45030;42.720;23.344;2022-09-09T02:58:53;11.15;;;6.00;;
59263;SDS011;45030;42.720;23.344;2022-09-09T03:01:19;8.02;;;6.68;;
59263;SDS011;45030;42.720;23.344;2022-09-09T03:03:45;8.73;;;6.30;;
59263;SDS011;45030;42.720;23.344;2022-09-09T03:06:11;6.85;;;5.28;;
59263;SDS011;45030;42.720;23.344;2022-09-09T03:08:37;9.40;;;6.25;;
59263;SDS011;45030;42.720;23.344;2022-09-09T03:11:02;9.48;;;6.95;;
59263;SDS011;45030;42.720;23.344;2022-09-09T03:13:27;9.32;;;6.43;;
59263;SDS011;45030;42.720;23.344;2022-09-09T03:15:53;8.32;;;6.45;;
59263;SDS011;45030;42.720;23.344;2022-09-09T03:18:18;9.68;;;6.65;;
59263;SDS011;45030;42.720;23.344;2022-09-09T03:20:43;10.50;;;6.68;;
59263;SDS011;45030;42.720;23.344;2022-09-09T03:23:11;7.32;;;6.38;;
59263;SDS011;45030;42.720;23.344;2022-09-09T03:25:38;10.07;;;5.75;;
59263;SDS011;45030;42.720;23.344;2022-09-09T03:28:04;9.43;;;6.15;;
59263;SDS011;45030;42.720;23.344;2022-09-09T03:30:29;8.35;;;6.18;;
59263;SDS011;45030;42.720;23.344;2022-09-09T03:32:55;7.68;;;6.22;;
59263;SDS011;45030;42.720;23.344;2022-09-09T03:35:20;8.20;;;6.05;;
59263;SDS011;45030;42.720;23.344;2022-09-09T03:37:45;10.05;;;6.80;;
59263;SDS011;45030;42.720;23.344;2022-09-09T03:40:11;8.05;;;5.93;;
59263;SDS011;45030;42.720;23.344;2022-09-09T03:42:37;9.02;;;5.97;;
59263;SDS011;45030;42.720;23.344;2022-09-09T03:45:03;7.35;;;5.85;;
59263;SDS011;45030;42.720;23.344;2022-09-09T03:47:28;7.18;;;5.80;;
59263;SDS011;45030;42.720;23.344;2022-09-09T03:49:53;7.38;;;5.55;;
59263;SDS011;45030;42.720;23.344;2022-09-09T03:52:18;7.68;;;5.55;;
59263;SDS011;45030;42.720;23.344;2022-09-09T03:54:44;6.97;;;5.25;;
59263;SDS011;45030;42.720;23.344;2022-09-09T03:57:10;6.75;;;5.20;;
59263;SDS011;45030;42.720;23.344;2022-09-09T03:59:35;7.53;;;5.45;;
59263;SDS011;45030;42.720;23.344;2022-09-09T04:02:01;10.25;;;6.05;;
59263;SDS011;45030;42.720;23.344;2022-09-09T04:04:27;7.55;;;5.75;;
59263;SDS011;45030;42.720;23.344;2022-09-09T04:06:52;8.68;;;6.18;;
59263;SDS011;45030;42.720;23.344;2022-09-09T04:09:18;12.32;;;7.03;;
59263;SDS011;45030;42.720;23.344;2022-09-09T04:11:43;9.77;;;6.63;;
59263;SDS011;45030;42.720;23.344;2022-09-09T04:14:08;10.05;;;6.95;;
59263;SDS011;45030;42.720;23.344;2022-09-09T04:16:34;10.60;;;7.35;;
59263;SDS011;45030;42.720;23.344;2022-09-09T04:19:01;10.48;;;7.20;;
59263;SDS011;45030;42.720;23.344;2022-09-09T04:21:29;7.70;;;6.13;;
59263;SDS011;45030;42.720;23.344;2022-09-09T04:23:54;11.32;;;8.35;;
59263;SDS011;45030;42.720;23.344;2022-09-09T04:26:19;10.73;;;6.40;;
59263;SDS011;45030;42.720;23.344;2022-09-09T04:28:45;9.55;;;6.95;;
59263;SDS011;45030;42.720;23.344;2022-09-09T04:31:15;11.95;;;6.88;;
59263;SDS011;45030;42.720;23.344;2022-09-09T04:33:41;13.00;;;6.78;;
59263;SDS011;45030;42.720;23.344;2022-09-09T04:36:06;12.00;;;7.78;;
59263;SDS011;45030;42.720;23.344;2022-09-09T04:38:32;9.00;;;5.97;;
59263;SDS011;45030;42.720;23.344;2022-09-09T04:40:57;11.73;;;6.95;;
59263;SDS011;45030;42.720;23.344;2022-09-09T04:43:23;10.07;;;6.18;;
59263;SDS011;45030;42.720;23.344;2022-09-09T04:45:51;11.38;;;5.90;;
59263;SDS011;45030;42.720;23.344;2022-09-09T04:48:16;10.52;;;6.35;;
59263;SDS011;45030;42.720;23.344;2022-09-09T04:50:42;8.70;;;6.32;;
59263;SDS011;45030;42.720;23.344;2022-09-09T04:53:07;8.85;;;6.15;;
59263;SDS011;45030;42.720;23.344;2022-09-09T04:55:33;8.93;;;6.18;;
59263;SDS011;45030;42.720;23.344;2022-09-09T04:58:03;9.75;;;6.10;;
59263;SDS011;45030;42.720;23.344;2022-09-09T05:00:30;13.40;;;6.97;;
59263;SDS011;45030;42.720;23.344;2022-09-09T05:02:55;8.68;;;6.80;;
59263;SDS011;45030;42.720;23.344;2022-09-09T05:05:20;8.55;;;5.60;;
59263;SDS011;45030;42.720;23.344;2022-09-09T05:07:45;11.38;;;8.02;;
59263;SDS011;45030;42.720;23.344;2022-09-09T05:10:12;8.80;;;6.65;;
59263;SDS011;45030;42.720;23.344;2022-09-09T05:12:38;11.27;;;7.63;;
59263;SDS011;45030;42.720;23.344;2022-09-09T05:15:03;10.77;;;7.05;;
59263;SDS011;45030;42.720;23.344;2022-09-09T05:17:29;11.57;;;7.28;;
59263;SDS011;45030;42.720;23.344;2022-09-09T05:19:54;12.98;;;7.22;;
59263;SDS011;45030;42.720;23.344;2022-09-09T05:22:19;9.82;;;6.25;;
59263;SDS011;45030;42.720;23.344;2022-09-09T05:24:45;8.95;;;6.63;;
59263;SDS011;45030;42.720;23.344;2022-09-09T05:27:11;7.80;;;5.93;;
59263;SDS011;45030;42.720;23.344;2022-09-09T05:29:37;9.45;;;6.57;;
59263;SDS011;45030;42.720;23.344;2022-09-09T05:32:03;7.70;;;6.18;;
59263;SDS011;45030;42.720;23.344;2022-09-09T05:34:28;9.70;;;7.00;;
59263;SDS011;45030;42.720;23.344;2022-09-09T05:36:54;9.20;;;6.80;;
59263;SDS011;45030;42.720;23.344;2022-09-09T05:39:19;8.90;;;6.95;;
59263;SDS011;45030;42.720;23.344;2022-09-09T05:41:44;8.30;;;5.53;;
59263;SDS011;45030;42.720;23.344;2022-09-09T05:44:09;10.23;;;6.40;;
59263;SDS011;45030;42.720;23.344;2022-09-09T05:46:35;7.15;;;5.50;;
59263;SDS011;45030;42.720;23.344;2022-09-09T05:49:01;7.05;;;5.65;;
59263;SDS011;45030;42.720;23.344;2022-09-09T05:51:27;7.60;;;5.60;;
59263;SDS011;45030;42.720;23.344;2022-09-09T05:53:54;8.18;;;6.13;;
59263;SDS011;45030;42.720;23.344;2022-09-09T05:56:22;11.27;;;5.75;;
59263;SDS011;45030;42.720;23.344;2022-09-09T05:58:48;8.93;;;6.15;;
59263;SDS011;45030;42.720;23.344;2022-09-09T06:01:24;9.20;;;5.47;;
59263;SDS011;45030;42.720;23.344;2022-09-09T06:03:51;8.40;;;5.18;;
59263;SDS011;45030;42.720;23.344;2022-09-09T06:06:20;6.68;;;5.18;;
59263;SDS011;45030;42.720;23.344;2022-09-09T06:08:46;8.40;;;5.20;;
59263;SDS011;45030;42.720;23.344;2022-09-09T06:13:37;6.75;;;5.55;;
59263;SDS011;45030;42.720;23.344;2022-09-09T06:16:04;8.50;;;4.47;;
59263;SDS011;45030;42.720;23.344;2022-09-09T06:18:29;10.43;;;5.32;;
59263;SDS011;45030;42.720;23.344;2022-09-09T06:20:58;5.18;;;4.55;;
59263;SDS011;45030;42.720;23.344;2022-09-09T06:23:24;5.55;;;4.50;;
59263;SDS011;45030;42.720;23.344;2022-09-09T06:25:50;7.13;;;4.35;;
59263;SDS011;45030;42.720;23.344;2022-09-09T06:28:16;7.38;;;4.97;;
59263;SDS011;45030;42.720;23.344;2022-09-09T06:30:42;7.18;;;4.20;;
59263;SDS011;45030;42.720;23.344;2022-09-09T06:33:07;6.10;;;4.50;;
59263;SDS011;45030;42.720;23.344;2022-09-09T06:35:32;7.72;;;4.15;;
59263;SDS011;45030;42.720;23.344;2022-09-09T06:37:58;6.95;;;4.78;;
59263;SDS011;45030;42.720;23.344;2022-09-09T06:40:23;9.18;;;4.82;;
59263;SDS011;45030;42.720;23.344;2022-09-09T06:42:49;5.03;;;3.78;;
59263;SDS011;45030;42.720;23.344;2022-09-09T06:45:14;5.10;;;3.60;;
59263;SDS011;45030;42.720;23.344;2022-09-09T06:47:39;5.38;;;3.92;;
59263;SDS011;45030;42.720;23.344;2022-09-09T06:50:05;7.40;;;4.75;;
59263;SDS011;45030;42.720;23.344;2022-09-09T06:52:32;6.55;;;3.85;;
59263;SDS011;45030;42.720;23.344;2022-09-09T06:54:57;5.35;;;4.20;;
59263;SDS011;45030;42.720;23.344;2022-09-09T06:57:23;5.53;;;3.88;;
59263;SDS011;45030;42.720;23.344;2022-09-09T06:59:49;9.10;;;3.90;;
59263;SDS011;45030;42.720;23.344;2022-09-09T07:02:14;5.38;;;4.05;;
59263;SDS011;45030;42.720;23.344;2022-09-09T07:04:39;4.68;;;3.58;;
59263;SDS011;45030;42.720;23.344;2022-09-09T07:07:05;6.20;;;3.57;;
59263;SDS011;45030;42.720;23.344;2022-09-09T07:09:30;5.32;;;3.95;;
59263;SDS011;45030;42.720;23.344;2022-09-09T07:11:56;4.63;;;3.42;;
59263;SDS011;45030;42.720;23.344;2022-09-09T07:14:24;6.60;;;4.28;;
59263;SDS011;45030;42.720;23.344;2022-09-09T07:16:49;5.53;;;4.10;;
59263;SDS011;45030;42.720;23.344;2022-09-09T07:19:15;5.20;;;3.70;;
59263;SDS011;45030;42.720;23.344;2022-09-09T07:21:40;5.30;;;4.00;;
59263;SDS011;45030;42.720;23.344;2022-09-09T07:24:07;7.78;;;3.50;;
59263;SDS011;45030;42.720;23.344;2022-09-09T07:26:35;6.15;;;3.45;;
59263;SDS011;45030;42.720;23.344;2022-09-09T07:29:01;5.05;;;3.80;;
59263;SDS011;45030;42.720;23.344;2022-09-09T07:31:27;6.07;;;4.25;;
59263;SDS011;45030;42.720;23.344;2022-09-09T07:33:55;5.72;;;3.80;;
59263;SDS011;45030;42.720;23.344;2022-09-09T07:36:21;5.85;;;3.03;;
59263;SDS011;45030;42.720;23.344;2022-09-09T07:38:48;4.38;;;3.17;;
59263;SDS011;45030;42.720;23.344;2022-09-09T07:41:21;5.80;;;3.17;;
59263;SDS011;45030;42.720;23.344;2022-09-09T07:43:47;6.55;;;3.30;;
59263;SDS011;45030;42.720;23.344;2022-09-09T07:46:13;5.55;;;3.60;;
59263;SDS011;45030;42.720;23.344;2022-09-09T07:48:49;5.72;;;3.42;;
59263;SDS011;45030;42.720;23.344;2022-09-09T07:51:39;4.35;;;3.20;;
59263;SDS011;45030;42.720;23.344;2022-09-09T07:54:05;4.53;;;3.05;;
59263;SDS011;45030;42.720;23.344;2022-09-09T07:56:30;3.25;;;2.80;;
59263;SDS011;45030;42.720;23.344;2022-09-09T07:58:56;3.80;;;2.65;;
59263;SDS011;45030;42.720;23.344;2022-09-09T08:01:26;2.92;;;2.20;;
59263;SDS011;45030;42.720;23.344;2022-09-09T08:03:56;2.90;;;2.42;;
59263;SDS011;45030;42.720;23.344;2022-09-09T08:06:23;3.57;;;2.60;;
59263;SDS011;45030;42.720;23.344;2022-09-09T08:08:50;3.80;;;2.25;;
59263;SDS011;45030;42.720;23.344;2022-09-09T08:11:15;4.70;;;2.70;;
59263;SDS011;45030;42.720;23.344;2022-09-09T08:13:41;4.20;;;2.47;;
59263;SDS011;45030;42.720;23.344;2022-09-09T08:16:08;3.72;;;2.88;;
59263;SDS011;45030;42.720;23.344;2022-09-09T08:18:33;3.67;;;2.67;;
59263;SDS011;45030;42.720;23.344;2022-09-09T08:21:04;3.60;;;2.67;;
59263;SDS011;45030;42.720;23.344;2022-09-09T08:23:29;2.63;;;2.10;;
59263;SDS011;45030;42.720;23.344;2022-09-09T08:25:55;4.47;;;3.47;;
59263;SDS011;45030;42.720;23.344;2022-09-09T08:28:20;3.58;;;2.85;;
59263;SDS011;45030;42.720;23.344;2022-09-09T08:30:46;5.22;;;3.05;;
59263;SDS011;45030;42.720;23.344;2022-09-09T08:33:12;3.80;;;2.55;;
59263;SDS011;45030;42.720;23.344;2022-09-09T08:35:38;3.33;;;2.63;;
59263;SDS011;45030;42.720;23.344;2022-09-09T08:38:03;4.55;;;2.60;;
59263;SDS011;45030;42.720;23.344;2022-09-09T08:40:29;3.20;;;2.47;;
59263;SDS011;45030;42.720;23.344;2022-09-09T08:42:58;4.28;;;2.67;;
59263;SDS011;45030;42.720;23.344;2022-09-09T08:45:26;3.80;;;2.50;;
59263;SDS011;45030;42.720;23.344;2022-09-09T08:47:56;3.55;;;2.40;;
59263;SDS011;45030;42.720;23.344;2022-09-09T08:50:26;4.25;;;3.13;;
59263;SDS011;45030;42.720;23.344;2022-09-09T08:58:08;5.38;;;2.47;;
59263;SDS011;45030;42.720;23.344;2022-09-09T09:03:27;3.38;;;2.50;;
59263;SDS011;45030;42.720;23.344;2022-09-09T09:08:45;3.83;;;2.75;;
59263;SDS011;45030;42.720;23.344;2022-09-09T09:11:12;3.93;;;2.60;;
59263;SDS011;45030;42.720;23.344;2022-09-09T09:16:31;6.72;;;2.88;;
59263;SDS011;45030;42.720;23.344;2022-09-09T09:18:58;4.53;;;2.60;;
59263;SDS011;45030;42.720;23.344;2022-09-09T09:24:01;4.45;;;3.08;;
59263;SDS011;45030;42.720;23.344;2022-09-09T09:26:35;2.90;;;2.60;;
59263;SDS011;45030;42.720;23.344;2022-09-09T09:29:07;6.03;;;2.60;;
59263;SDS011;45030;42.720;23.344;2022-09-09T09:31:34;5.10;;;2.95;;
59263;SDS011;45030;42.720;23.344;2022-09-09T09:33:59;5.37;;;2.67;;
59263;SDS011;45030;42.720;23.344;2022-09-09T09:39:29;5.45;;;3.20;;
59263;SDS011;45030;42.720;23.344;2022-09-09T09:44:22;7.40;;;3.20;;
59263;SDS011;45030;42.720;23.344;2022-09-09T09:46:48;4.38;;;2.92;;
59263;SDS011;45030;42.720;23.344;2022-09-09T09:49:13;5.13;;;2.87;;
59263;SDS011;45030;42.720;23.344;2022-09-09T09:51:38;7.32;;;2.80;;
59263;SDS011;45030;42.720;23.344;2022-09-09T09:54:09;4.72;;;3.17;;
59263;SDS011;45030;42.720;23.344;2022-09-09T09:56:38;3.65;;;2.95;;
59263;SDS011;45030;42.720;23.344;2022-09-09T09:59:04;5.80;;;3.67;;
59263;SDS011;45030;42.720;23.344;2022-09-09T10:01:30;4.23;;;3.17;;
59263;SDS011;45030;42.720;23.344;2022-09-09T10:04:02;4.78;;;3.05;;
59263;SDS011;45030;42.720;23.344;2022-09-09T10:06:35;3.65;;;3.00;;
59263;SDS011;45030;42.720;23.344;2022-09-09T10:09:01;4.65;;;3.50;;
59263;SDS011;45030;42.720;23.344;2022-09-09T10:11:40;4.95;;;3.38;;
59263;SDS011;45030;42.720;23.344;2022-09-09T10:19:38;4.68;;;2.90;;
59263;SDS011;45030;42.720;23.344;2022-09-09T10:30:19;4.55;;;3.08;;
59263;SDS011;45030;42.720;23.344;2022-09-09T10:51:20;8.77;;;4.22;;
59263;SDS011;45030;42.720;23.344;2022-09-09T10:56:13;5.53;;;3.63;;
59263;SDS011;45030;42.720;23.344;2022-09-09T11:01:11;6.00;;;3.85;;
59263;SDS011;45030;42.720;23.344;2022-09-09T11:03:41;5.32;;;3.65;;
59263;SDS011;45030;42.720;23.344;2022-09-09T11:06:14;5.03;;;3.72;;
59263;SDS011;45030;42.720;23.344;2022-09-09T11:08:42;6.43;;;3.90;;
59263;SDS011;45030;42.720;23.344;2022-09-09T11:18:39;6.13;;;4.20;;
59263;SDS011;45030;42.720;23.344;2022-09-09T11:21:11;7.28;;;4.05;;
59263;SDS011;45030;42.720;23.344;2022-09-09T11:23:44;5.95;;;4.28;;
59263;SDS011;45030;42.720;23.344;2022-09-09T11:26:12;8.60;;;4.57;;
59263;SDS011;45030;42.720;23.344;2022-09-09T11:28:45;5.57;;;3.80;;
59263;SDS011;45030;42.720;23.344;2022-09-09T11:33:53;5.93;;;4.32;;
59263;SDS011;45030;42.720;23.344;2022-09-09T11:41:43;4.78;;;4.28;;
59263;SDS011;45030;42.720;23.344;2022-09-09T11:44:09;5.27;;;3.97;;
59263;SDS011;45030;42.720;23.344;2022-09-09T11:46:36;6.30;;;4.68;;
59263;SDS011;45030;42.720;23.344;2022-09-09T11:49:04;5.72;;;4.18;;
59263;SDS011;45030;42.720;23.344;2022-09-09T11:51:30;5.82;;;4.20;;
59263;SDS011;45030;42.720;23.344;2022-09-09T11:56:26;6.15;;;3.78;;
59263;SDS011;45030;42.720;23.344;2022-09-09T11:58:56;11.45;;;4.90;;
59263;SDS011;45030;42.720;23.344;2022-09-09T12:06:33;5.38;;;4.28;;
59263;SDS011;45030;42.720;23.344;2022-09-09T12:09:16;5.47;;;4.00;;
59263;SDS011;45030;42.720;23.344;2022-09-09T12:11:43;6.45;;;3.85;;
59263;SDS011;45030;42.720;23.344;2022-09-09T12:14:18;8.88;;;3.80;;
59263;SDS011;45030;42.720;23.344;2022-09-09T12:16:44;6.47;;;3.72;;
59263;SDS011;45030;42.720;23.344;2022-09-09T12:19:14;6.43;;;3.63;;
59263;SDS011;45030;42.720;23.344;2022-09-09T12:24:09;5.73;;;4.20;;
59263;SDS011;45030;42.720;23.344;2022-09-09T12:26:37;9.55;;;4.43;;
59263;SDS011;45030;42.720;23.344;2022-09-09T12:36:49;6.07;;;3.80;;
59263;SDS011;45030;42.720;23.344;2022-09-09T12:39:18;4.95;;;4.25;;
59263;SDS011;45030;42.720;23.344;2022-09-09T12:41:51;5.55;;;3.63;;
59263;SDS011;45030;42.720;23.344;2022-09-09T12:44:21;6.25;;;4.78;;
59263;SDS011;45030;42.720;23.344;2022-09-09T12:46:47;6.00;;;4.50;;
59263;SDS011;45030;42.720;23.344;2022-09-09T12:51:51;4.63;;;3.88;;
59263;SDS011;45030;42.720;23.344;2022-09-09T12:54:16;6.75;;;4.40;;
59263;SDS011;45030;42.720;23.344;2022-09-09T12:56:44;5.28;;;3.92;;
59263;SDS011;45030;42.720;23.344;2022-09-09T12:59:17;6.03;;;4.03;;
59263;SDS011;45030;42.720;23.344;2022-09-09T13:01:54;7.88;;;3.90;;
59263;SDS011;45030;42.720;23.344;2022-09-09T13:04:21;6.28;;;4.10;;
59263;SDS011;45030;42.720;23.344;2022-09-09T13:06:47;5.68;;;4.28;;
59263;SDS011;45030;42.720;23.344;2022-09-09T13:09:12;7.20;;;5.18;;
59263;SDS011;45030;42.720;23.344;2022-09-09T13:11:39;5.40;;;3.95;;
59263;SDS011;45030;42.720;23.344;2022-09-09T13:14:12;6.95;;;3.75;;
59263;SDS011;45030;42.720;23.344;2022-09-09T13:16:43;6.13;;;4.35;;
59263;SDS011;45030;42.720;23.344;2022-09-09T13:19:09;6.87;;;4.47;;
59263;SDS011;45030;42.720;23.344;2022-09-09T13:21:38;7.88;;;4.35;;
59263;SDS011;45030;42.720;23.344;2022-09-09T13:24:04;4.45;;;2.92;;
59263;SDS011;45030;42.720;23.344;2022-09-09T13:26:31;5.35;;;4.18;;
59263;SDS011;45030;42.720;23.344;2022-09-09T13:29:07;4.28;;;3.70;;
59263;SDS011;45030;42.720;23.344;2022-09-09T13:31:34;6.65;;;4.20;;
59263;SDS011;45030;42.720;23.344;2022-09-09T13:34:10;7.13;;;3.72;;
59263;SDS011;45030;42.720;23.344;2022-09-09T13:36:35;6.28;;;3.58;;
59263;SDS011;45030;42.720;23.344;2022-09-09T13:39:02;6.57;;;5.10;;
59263;SDS011;45030;42.720;23.344;2022-09-09T13:41:32;9.10;;;4.60;;
59263;SDS011;45030;42.720;23.344;2022-09-09T13:43:58;6.47;;;4.13;;
59263;SDS011;45030;42.720;23.344;2022-09-09T13:46:39;5.25;;;3.58;;
59263;SDS011;45030;42.720;23.344;2022-09-09T13:51:46;7.82;;;4.82;;
59263;SDS011;45030;42.720;23.344;2022-09-09T13:54:16;6.72;;;3.70;;
59263;SDS011;45030;42.720;23.344;2022-09-09T13:56:41;7.00;;;3.50;;
59263;SDS011;45030;42.720;23.344;2022-09-09T13:59:14;7.65;;;3.63;;
59263;SDS011;45030;42.720;23.344;2022-09-09T14:01:39;6.18;;;4.95;;
59263;SDS011;45030;42.720;23.344;2022-09-09T14:04:06;7.72;;;4.85;;
59263;SDS011;45030;42.720;23.344;2022-09-09T14:06:31;8.15;;;5.70;;
59263;SDS011;45030;42.720;23.344;2022-09-09T14:08:57;7.55;;;4.68;;
59263;SDS011;45030;42.720;23.344;2022-09-09T14:11:22;6.93;;;4.20;;
59263;SDS011;45030;42.720;23.344;2022-09-09T14:13:47;6.07;;;3.73;;
59263;SDS011;45030;42.720;23.344;2022-09-09T14:16:15;9.98;;;5.00;;
59263;SDS011;45030;42.720;23.344;2022-09-09T14:18:40;7.53;;;4.75;;
59263;SDS011;45030;42.720;23.344;2022-09-09T14:21:05;5.68;;;3.50;;
59263;SDS011;45030;42.720;23.344;2022-09-09T14:23:31;5.72;;;3.80;;
59263;SDS011;45030;42.720;23.344;2022-09-09T14:25:57;5.20;;;3.80;;
59263;SDS011;45030;42.720;23.344;2022-09-09T14:28:22;8.43;;;4.80;;
59263;SDS011;45030;42.720;23.344;2022-09-09T14:30:47;6.20;;;4.20;;
59263;SDS011;45030;42.720;23.344;2022-09-09T14:33:13;6.83;;;4.30;;
59263;SDS011;45030;42.720;23.344;2022-09-09T14:35:39;6.40;;;4.22;;
59263;SDS011;45030;42.720;23.344;2022-09-09T14:38:06;6.72;;;4.30;;
59263;SDS011;45030;42.720;23.344;2022-09-09T14:40:31;7.10;;;5.25;;
59263;SDS011;45030;42.720;23.344;2022-09-09T14:42:56;5.97;;;4.07;;
59263;SDS011;45030;42.720;23.344;2022-09-09T14:45:22;6.78;;;4.57;;
59263;SDS011;45030;42.720;23.344;2022-09-09T14:47:49;6.93;;;4.47;;
59263;SDS011;45030;42.720;23.344;2022-09-09T14:50:15;6.95;;;5.10;;
59263;SDS011;45030;42.720;23.344;2022-09-09T14:52:40;6.37;;;3.87;;
59263;SDS011;45030;42.720;23.344;2022-09-09T14:55:05;7.63;;;3.88;;
59263;SDS011;45030;42.720;23.344;2022-09-09T14:57:31;5.90;;;4.45;;
59263;SDS011;45030;42.720;23.344;2022-09-09T14:59:56;7.00;;;3.73;;
59263;SDS011;45030;42.720;23.344;2022-09-09T15:02:21;9.10;;;3.50;;
59263;SDS011;45030;42.720;23.344;2022-09-09T15:04:47;4.93;;;3.40;;
59263;SDS011;45030;42.720;23.344;2022-09-09T15:07:12;4.37;;;3.23;;
59263;SDS011;45030;42.720;23.344;2022-09-09T15:09:37;4.22;;;3.08;;
59263;SDS011;45030;42.720;23.344;2022-09-09T15:12:03;3.63;;;2.78;;
59263;SDS011;45030;42.720;23.344;2022-09-09T15:14:29;6.00;;;3.20;;
59263;SDS011;45030;42.720;23.344;2022-09-09T15:16:55;6.75;;;3.00;;
59263;SDS011;45030;42.720;23.344;2022-09-09T15:19:21;6.60;;;3.40;;
59263;SDS011;45030;42.720;23.344;2022-09-09T15:21:46;5.55;;;3.22;;
59263;SDS011;45030;42.720;23.344;2022-09-09T15:24:12;7.13;;;3.33;;
59263;SDS011;45030;42.720;23.344;2022-09-09T15:26:38;5.60;;;3.60;;
59263;SDS011;45030;42.720;23.344;2022-09-09T15:29:04;6.15;;;3.28;;
59263;SDS011;45030;42.720;23.344;2022-09-09T15:31:30;4.60;;;3.20;;
59263;SDS011;45030;42.720;23.344;2022-09-09T15:34:06;6.45;;;3.60;;
59263;SDS011;45030;42.720;23.344;2022-09-09T15:36:32;5.65;;;3.92;;
59263;SDS011;45030;42.720;23.344;2022-09-09T15:39:01;5.30;;;3.38;;
59263;SDS011;45030;42.720;23.344;2022-09-09T15:41:27;5.32;;;3.15;;
59263;SDS011;45030;42.720;23.344;2022-09-09T15:43:55;5.80;;;3.42;;
59263;SDS011;45030;42.720;23.344;2022-09-09T15:46:37;5.22;;;3.38;;
59263;SDS011;45030;42.720;23.344;2022-09-09T15:51:27;6.40;;;3.60;;
59263;SDS011;45030;42.720;23.344;2022-09-09T15:53:53;4.87;;;3.60;;
59263;SDS011;45030;42.720;23.344;2022-09-09T15:56:20;6.32;;;3.70;;
59263;SDS011;45030;42.720;23.344;2022-09-09T15:58:45;6.73;;;3.33;;
59263;SDS011;45030;42.720;23.344;2022-09-09T16:01:10;7.13;;;3.13;;
59263;SDS011;45030;42.720;23.344;2022-09-09T16:03:40;5.22;;;2.90;;
59263;SDS011;45030;42.720;23.344;2022-09-09T16:06:07;6.38;;;3.03;;
59263;SDS011;45030;42.720;23.344;2022-09-09T16:08:33;4.25;;;3.15;;
59263;SDS011;45030;42.720;23.344;2022-09-09T16:11:03;5.85;;;3.53;;
59263;SDS011;45030;42.720;23.344;2022-09-09T16:13:32;5.72;;;3.10;;
59263;SDS011;45030;42.720;23.344;2022-09-09T16:15:57;5.30;;;3.85;;
59263;SDS011;45030;42.720;23.344;2022-09-09T16:18:23;10.20;;;4.93;;
59263;SDS011;45030;42.720;23.344;2022-09-09T16:20:55;6.77;;;4.90;;
59263;SDS011;45030;42.720;23.344;2022-09-09T16:23:20;8.93;;;5.20;;
59263;SDS011;45030;42.720;23.344;2022-09-09T16:25:53;7.00;;;4.40;;
59263;SDS011;45030;42.720;23.344;2022-09-09T16:28:18;7.65;;;4.82;;
59263;SDS011;45030;42.720;23.344;2022-09-09T16:30:43;9.50;;;3.90;;
59263;SDS011;45030;42.720;23.344;2022-09-09T16:33:08;8.43;;;4.10;;
59263;SDS011;45030;42.720;23.344;2022-09-09T16:35:36;6.28;;;4.35;;
59263;SDS011;45030;42.720;23.344;2022-09-09T16:38:01;7.40;;;4.30;;
59263;SDS011;45030;42.720;23.344;2022-09-09T16:40:27;7.63;;;4.15;;
59263;SDS011;45030;42.720;23.344;2022-09-09T16:42:52;10.48;;;4.40;;
59263;SDS011;45030;42.720;23.344;2022-09-09T16:45:17;8.57;;;4.60;;
59263;SDS011;45030;42.720;23.344;2022-09-09T16:47:43;8.40;;;4.32;;
59263;SDS011;45030;42.720;23.344;2022-09-09T16:50:09;10.77;;;5.57;;
59263;SDS011;45030;42.720;23.344;2022-09-09T16:52:34;10.57;;;5.33;;